logo
Search for airport 
image banner adimage banner adimage banner ad
image banner ad

FAMORN - Morningstar

Located in Cape Town, South Africa

ICAO - , IATA -

Data provided by Airmate  

General information

Coordinates: S33°45'33" E18°32'54"
Elevation is 219 feet MSL.
Magnetic variation is -25° East
Rated:
View ratings:
[VIEW]
View others Airports in Western Cape

Operational data

Special qualification required
Current time UTC:
Current local time:
Weather at : - ( 0 km )
METAR: KESN 181117Z 36005KT 5SM BR OVC005 14/14 A2996
View NOTAMs / SUP AIP / TFR affecting this airport [VIEW]
Communications frequencies: [VIEW]

Runways:

RWY identifierQFULength (ft)Width (ft)SurfaceLDA (ft)
02176°223126ASPH
20180°223126ASPH

Airport contact information

Address: Cape Town South Africa

Handlers

Sideslip Aviation Worx

Sideslip Aviation Worx
Rated:
View ratings:
[VIEW]

Other aviation service providers

Aviation club (not for profit)

Morningstar Flying Club

Morningstar Flying Club
Rated:
View ratings:
[VIEW]

Satellite view of FAMORN